RJOI/IWA METAR and TAF weather

Enter ICAO airport designator
Station Type Date Time Source
RJOI METAR 2020/04/01 23:55 UTC NOAA

RJOI 012355Z 02008KT 9999 FEW030 SCT050 13/03 A3010 RMK SLP191 60000 T01280033 10133 20083 51024


Station Type Date Time Source
RJOI Decoded METAR 2020/04/01 23:55 UTC NOAA

MCAS IWAKUNI,JAPAN, JA, Japan (RJOI) 34-09N 132-14E 5M
Apr 01, 2020 - 07:55 PM EDT / 2020.04.01 2355 UTC
Wind: from the NNE (020 degrees) at 9 MPH (8 KT):0
Visibility: greater than 7 mile(s):0
Sky conditions: partly cloudy
Temperature: 55.0 F (12.8 C)
Dew Point: 37.9 F (3.3 C)
Relative Humidity: 52%
Pressure (altimeter): 30.1 in. Hg (1019 hPa)
Pressure tendency: 0.07 inches (2.4 hPa) higher than three hours ago
ob: RJOI 012355Z 02008KT 9999 FEW030 SCT050 13/03 A3010 RMK SLP191 60000 T01280033 10133 20083 51024
cycle: 0

Station Type Date Time Source
RJOI TAF 2020/04/01 21:54 UTC NOAA

TAF TAF RJOI 0121/0221 VRB06KT 9999 FEW030 BKN050 510705 QNH3002INS
FM020000 35010KT 9999 FEW030 510705 QNH3010INS
TEMPO 0200/0205 35010G16KT
FM020600 VRB06KT 9999 FEW050 510705 QNH3011INS
FM021300 VRB06KT 9999 SCT100 500000 QNH3017INS T16/0204Z T07/0214Z

Example: see airport list